Airport Name : Cambridge

Other Name : Cambridge

ICAO : EGSC

IATA : CBG

FAA :

Latitude : 52.205

Longitude : 0.175

Country : United Kingdom

Local Date and Time : 10/23/2018 8:03:00 AM

 

TAF (Terminal Aerodrome Forecast)

 

METAR (METeorological Aerodrome Report)

EGSC 230650Z 26007KT CAVOK 08/05 Q1030